sensor_id;sensor_type;location;lat;lon;timestamp;temperature;humidity
17998;DHT22;9124;48.144;17.098;2023-03-02T00:00:51;3.20;60.40
17998;DHT22;9124;48.144;17.098;2023-03-02T00:04:31;3.20;60.50
17998;DHT22;9124;48.144;17.098;2023-03-02T00:08:08;3.20;60.70
17998;DHT22;9124;48.144;17.098;2023-03-02T00:11:45;3.20;60.70
17998;DHT22;9124;48.144;17.098;2023-03-02T00:15:21;3.10;60.70
17998;DHT22;9124;48.144;17.098;2023-03-02T00:18:57;3.10;60.80
17998;DHT22;9124;48.144;17.098;2023-03-02T00:22:34;3.00;60.90
17998;DHT22;9124;48.144;17.098;2023-03-02T00:26:11;3.00;61.00
17998;DHT22;9124;48.144;17.098;2023-03-02T00:29:48;2.90;61.00
17998;DHT22;9124;48.144;17.098;2023-03-02T00:33:25;2.90;61.20
17998;DHT22;9124;48.144;17.098;2023-03-02T00:37:02;2.90;61.20
17998;DHT22;9124;48.144;17.098;2023-03-02T00:40:44;2.90;61.30
17998;DHT22;9124;48.144;17.098;2023-03-02T00:44:21;2.80;61.40
17998;DHT22;9124;48.144;17.098;2023-03-02T00:47:57;2.80;61.40
17998;DHT22;9124;48.144;17.098;2023-03-02T00:51:34;2.70;61.40
17998;DHT22;9124;48.144;17.098;2023-03-02T00:55:10;2.70;61.50
17998;DHT22;9124;48.144;17.098;2023-03-02T00:58:48;2.60;61.60
17998;DHT22;9124;48.144;17.098;2023-03-02T01:02:26;2.60;61.60
17998;DHT22;9124;48.144;17.098;2023-03-02T01:06:04;2.60;61.70
17998;DHT22;9124;48.144;17.098;2023-03-02T01:09:42;2.50;61.80
17998;DHT22;9124;48.144;17.098;2023-03-02T01:13:19;2.50;62.50
17998;DHT22;9124;48.144;17.098;2023-03-02T01:16:56;2.40;61.90
17998;DHT22;9124;48.144;17.098;2023-03-02T01:20:32;2.40;62.00
17998;DHT22;9124;48.144;17.098;2023-03-02T01:24:09;2.40;62.10
17998;DHT22;9124;48.144;17.098;2023-03-02T01:27:46;2.30;62.20
17998;DHT22;9124;48.144;17.098;2023-03-02T01:31:24;2.30;62.20
17998;DHT22;9124;48.144;17.098;2023-03-02T01:35:01;2.30;62.40
17998;DHT22;9124;48.144;17.098;2023-03-02T01:38:37;2.20;62.40
17998;DHT22;9124;48.144;17.098;2023-03-02T01:42:14;2.20;62.50
17998;DHT22;9124;48.144;17.098;2023-03-02T01:45:57;2.20;62.60
17998;DHT22;9124;48.144;17.098;2023-03-02T01:50:20;2.10;62.60
17998;DHT22;9124;48.144;17.098;2023-03-02T01:53:59;2.10;62.70
17998;DHT22;9124;48.144;17.098;2023-03-02T01:57:39;2.00;62.70
17998;DHT22;9124;48.144;17.098;2023-03-02T02:01:19;2.00;62.80
17998;DHT22;9124;48.144;17.098;2023-03-02T02:04:56;2.00;63.00
17998;DHT22;9124;48.144;17.098;2023-03-02T02:08:33;1.90;63.00
17998;DHT22;9124;48.144;17.098;2023-03-02T02:12:15;1.90;63.10
17998;DHT22;9124;48.144;17.098;2023-03-02T02:15:53;1.90;63.20
17998;DHT22;9124;48.144;17.098;2023-03-02T02:20:05;1.90;63.30
17998;DHT22;9124;48.144;17.098;2023-03-02T02:24:31;1.90;63.60
17998;DHT22;9124;48.144;17.098;2023-03-02T02:28:05;1.90;63.50
17998;DHT22;9124;48.144;17.098;2023-03-02T02:31:52;1.80;63.40
17998;DHT22;9124;48.144;17.098;2023-03-02T02:35:32;1.80;63.50
17998;DHT22;9124;48.144;17.098;2023-03-02T02:39:20;1.80;63.50
17998;DHT22;9124;48.144;17.098;2023-03-02T02:42:57;1.80;63.70
17998;DHT22;9124;48.144;17.098;2023-03-02T02:46:34;1.70;63.60
17998;DHT22;9124;48.144;17.098;2023-03-02T02:50:23;1.70;63.80
17998;DHT22;9124;48.144;17.098;2023-03-02T02:54:03;1.70;64.00
17998;DHT22;9124;48.144;17.098;2023-03-02T02:57:46;1.70;64.00
17998;DHT22;9124;48.144;17.098;2023-03-02T03:01:23;1.70;64.10
17998;DHT22;9124;48.144;17.098;2023-03-02T03:05:02;1.80;64.10
17998;DHT22;9124;48.144;17.098;2023-03-02T03:08:48;1.70;64.10
17998;DHT22;9124;48.144;17.098;2023-03-02T03:12:38;1.70;64.20
17998;DHT22;9124;48.144;17.098;2023-03-02T03:16:17;1.70;64.20
17998;DHT22;9124;48.144;17.098;2023-03-02T03:19:54;1.60;64.30
17998;DHT22;9124;48.144;17.098;2023-03-02T03:23:37;1.60;64.40
17998;DHT22;9124;48.144;17.098;2023-03-02T03:27:15;1.50;64.40
17998;DHT22;9124;48.144;17.098;2023-03-02T03:30:53;1.50;64.50
17998;DHT22;9124;48.144;17.098;2023-03-02T03:34:31;1.50;64.70
17998;DHT22;9124;48.144;17.098;2023-03-02T03:38:08;1.40;64.70
17998;DHT22;9124;48.144;17.098;2023-03-02T03:41:45;1.40;64.90
17998;DHT22;9124;48.144;17.098;2023-03-02T03:45:21;1.40;64.90
17998;DHT22;9124;48.144;17.098;2023-03-02T03:48:58;1.40;65.00
17998;DHT22;9124;48.144;17.098;2023-03-02T03:52:35;1.40;65.10
17998;DHT22;9124;48.144;17.098;2023-03-02T03:56:22;1.30;65.10
17998;DHT22;9124;48.144;17.098;2023-03-02T03:59:59;1.30;65.20
17998;DHT22;9124;48.144;17.098;2023-03-02T04:03:35;1.30;65.30
17998;DHT22;9124;48.144;17.098;2023-03-02T04:07:13;1.30;65.40
17998;DHT22;9124;48.144;17.098;2023-03-02T04:10:51;1.20;65.40
17998;DHT22;9124;48.144;17.098;2023-03-02T04:14:28;1.20;65.50
17998;DHT22;9124;48.144;17.098;2023-03-02T04:18:05;1.20;65.60
17998;DHT22;9124;48.144;17.098;2023-03-02T04:21:45;1.20;65.70
17998;DHT22;9124;48.144;17.098;2023-03-02T04:25:26;1.20;65.80
17998;DHT22;9124;48.144;17.098;2023-03-02T04:29:09;1.10;65.80
17998;DHT22;9124;48.144;17.098;2023-03-02T04:32:48;1.20;66.00
17998;DHT22;9124;48.144;17.098;2023-03-02T04:36:25;1.20;66.00
17998;DHT22;9124;48.144;17.098;2023-03-02T04:40:04;1.20;66.00
17998;DHT22;9124;48.144;17.098;2023-03-02T04:43:40;1.10;66.00
17998;DHT22;9124;48.144;17.098;2023-03-02T04:47:16;1.10;66.10
17998;DHT22;9124;48.144;17.098;2023-03-02T04:50:53;1.10;66.30
17998;DHT22;9124;48.144;17.098;2023-03-02T04:54:30;1.10;66.20
17998;DHT22;9124;48.144;17.098;2023-03-02T04:58:06;1.10;66.30
17998;DHT22;9124;48.144;17.098;2023-03-02T05:01:44;1.00;66.30
17998;DHT22;9124;48.144;17.098;2023-03-02T05:05:23;1.00;66.50
17998;DHT22;9124;48.144;17.098;2023-03-02T05:09:00;0.90;66.50
17998;DHT22;9124;48.144;17.098;2023-03-02T05:12:36;0.90;66.60
17998;DHT22;9124;48.144;17.098;2023-03-02T05:16:32;0.90;66.60
17998;DHT22;9124;48.144;17.098;2023-03-02T05:20:11;0.90;66.80
17998;DHT22;9124;48.144;17.098;2023-03-02T05:23:47;0.90;66.80
17998;DHT22;9124;48.144;17.098;2023-03-02T05:27:23;0.90;66.80
17998;DHT22;9124;48.144;17.098;2023-03-02T05:31:00;0.80;66.90
17998;DHT22;9124;48.144;17.098;2023-03-02T05:34:37;0.80;67.00
17998;DHT22;9124;48.144;17.098;2023-03-02T05:38:14;0.80;67.10
17998;DHT22;9124;48.144;17.098;2023-03-02T05:41:50;0.80;67.10
17998;DHT22;9124;48.144;17.098;2023-03-02T05:45:30;0.90;67.20
17998;DHT22;9124;48.144;17.098;2023-03-02T05:49:06;0.90;67.40
17998;DHT22;9124;48.144;17.098;2023-03-02T05:52:43;1.10;67.60
17998;DHT22;9124;48.144;17.098;2023-03-02T05:56:20;1.20;67.60
17998;DHT22;9124;48.144;17.098;2023-03-02T05:59:57;1.30;67.60
17998;DHT22;9124;48.144;17.098;2023-03-02T06:03:33;1.40;67.60
17998;DHT22;9124;48.144;17.098;2023-03-02T06:07:10;1.50;67.60
17998;DHT22;9124;48.144;17.098;2023-03-02T06:10:47;1.60;67.70
17998;DHT22;9124;48.144;17.098;2023-03-02T06:14:25;1.70;67.70
17998;DHT22;9124;48.144;17.098;2023-03-02T06:18:02;1.80;67.70
17998;DHT22;9124;48.144;17.098;2023-03-02T06:21:38;2.00;67.70
17998;DHT22;9124;48.144;17.098;2023-03-02T06:25:21;2.30;67.90
17998;DHT22;9124;48.144;17.098;2023-03-02T06:28:57;2.70;68.40
17998;DHT22;9124;48.144;17.098;2023-03-02T06:32:33;3.50;68.80
17998;DHT22;9124;48.144;17.098;2023-03-02T06:36:10;4.30;69.60
17998;DHT22;9124;48.144;17.098;2023-03-02T06:39:47;4.90;68.80
17998;DHT22;9124;48.144;17.098;2023-03-02T06:43:23;4.90;67.20
17998;DHT22;9124;48.144;17.098;2023-03-02T06:47:00;5.80;67.20
17998;DHT22;9124;48.144;17.098;2023-03-02T06:50:36;7.50;67.30
17998;DHT22;9124;48.144;17.098;2023-03-02T06:54:14;8.40;65.40
17998;DHT22;9124;48.144;17.098;2023-03-02T06:57:50;8.40;63.90
17998;DHT22;9124;48.144;17.098;2023-03-02T07:01:27;8.00;63.90
17998;DHT22;9124;48.144;17.098;2023-03-02T07:05:07;7.80;63.80
17998;DHT22;9124;48.144;17.098;2023-03-02T07:08:44;7.80;63.60
17998;DHT22;9124;48.144;17.098;2023-03-02T07:12:21;7.30;63.80
17998;DHT22;9124;48.144;17.098;2023-03-02T07:15:57;6.80;64.20
17998;DHT22;9124;48.144;17.098;2023-03-02T07:19:33;6.40;64.50
17998;DHT22;9124;48.144;17.098;2023-03-02T07:23:10;6.20;64.80
17998;DHT22;9124;48.144;17.098;2023-03-02T07:26:47;6.10;64.90
17998;DHT22;9124;48.144;17.098;2023-03-02T07:30:24;6.00;64.90
17998;DHT22;9124;48.144;17.098;2023-03-02T07:34:00;6.00;64.90
17998;DHT22;9124;48.144;17.098;2023-03-02T07:37:36;6.00;64.80
17998;DHT22;9124;48.144;17.098;2023-03-02T07:41:13;6.00;64.80
17998;DHT22;9124;48.144;17.098;2023-03-02T07:44:52;6.00;64.70
17998;DHT22;9124;48.144;17.098;2023-03-02T07:48:30;6.10;64.80
17998;DHT22;9124;48.144;17.098;2023-03-02T07:52:07;6.20;64.70
17998;DHT22;9124;48.144;17.098;2023-03-02T07:55:43;6.30;64.60
17998;DHT22;9124;48.144;17.098;2023-03-02T07:59:19;6.40;64.40
17998;DHT22;9124;48.144;17.098;2023-03-02T08:02:56;6.40;64.30
17998;DHT22;9124;48.144;17.098;2023-03-02T08:06:32;6.60;64.20
17998;DHT22;9124;48.144;17.098;2023-03-02T08:10:10;6.80;64.20
17998;DHT22;9124;48.144;17.098;2023-03-02T08:13:46;7.10;64.10
17998;DHT22;9124;48.144;17.098;2023-03-02T08:17:23;7.30;63.90
17998;DHT22;9124;48.144;17.098;2023-03-02T08:20:59;7.70;63.80
17998;DHT22;9124;48.144;17.098;2023-03-02T08:24:36;8.50;63.70
17998;DHT22;9124;48.144;17.098;2023-03-02T08:28:12;12.10;66.10
17998;DHT22;9124;48.144;17.098;2023-03-02T08:31:49;16.50;65.70
17998;DHT22;9124;48.144;17.098;2023-03-02T08:35:25;18.90;62.50
17998;DHT22;9124;48.144;17.098;2023-03-02T08:39:02;20.80;60.20
17998;DHT22;9124;48.144;17.098;2023-03-02T08:42:38;22.40;56.50
17998;DHT22;9124;48.144;17.098;2023-03-02T08:46:17;23.00;52.20
17998;DHT22;9124;48.144;17.098;2023-03-02T08:49:53;24.40;51.50
17998;DHT22;9124;48.144;17.098;2023-03-02T08:53:32;24.70;48.50
17998;DHT22;9124;48.144;17.098;2023-03-02T08:57:10;25.60;47.90
17998;DHT22;9124;48.144;17.098;2023-03-02T09:00:47;27.10;46.80
17998;DHT22;9124;48.144;17.098;2023-03-02T09:04:23;27.20;44.60
17998;DHT22;9124;48.144;17.098;2023-03-02T09:08:00;28.30;44.10
17998;DHT22;9124;48.144;17.098;2023-03-02T09:11:36;28.60;42.00
17998;DHT22;9124;48.144;17.098;2023-03-02T09:15:13;28.20;41.50
17998;DHT22;9124;48.144;17.098;2023-03-02T09:18:50;28.10;40.50
17998;DHT22;9124;48.144;17.098;2023-03-02T09:22:26;27.60;39.50
17998;DHT22;9124;48.144;17.098;2023-03-02T09:26:03;28.60;39.20
17998;DHT22;9124;48.144;17.098;2023-03-02T09:29:40;29.40;38.10
17998;DHT22;9124;48.144;17.098;2023-03-02T09:33:17;29.70;37.10
17998;DHT22;9124;48.144;17.098;2023-03-02T09:36:53;29.80;36.10
17998;DHT22;9124;48.144;17.098;2023-03-02T09:40:31;30.50;35.30
17998;DHT22;9124;48.144;17.098;2023-03-02T09:44:25;30.80;33.90
17998;DHT22;9124;48.144;17.098;2023-03-02T09:55:35;31.80;32.00
17998;DHT22;9124;48.144;17.098;2023-03-02T09:59:21;32.40;31.30
17998;DHT22;9124;48.144;17.098;2023-03-02T10:03:04;32.30;30.30
17998;DHT22;9124;48.144;17.098;2023-03-02T10:06:43;32.10;30.00
17998;DHT22;9124;48.144;17.098;2023-03-02T10:10:28;31.90;29.50
17998;DHT22;9124;48.144;17.098;2023-03-02T10:14:19;32.10;29.20
17998;DHT22;9124;48.144;17.098;2023-03-02T10:22:12;31.90;28.50
17998;DHT22;9124;48.144;17.098;2023-03-02T10:26:44;31.80;27.70
17998;DHT22;9124;48.144;17.098;2023-03-02T10:29:57;33.00;27.80
17998;DHT22;9124;48.144;17.098;2023-03-02T10:33:59;32.90;27.40
17998;DHT22;9124;48.144;17.098;2023-03-02T10:37:35;31.70;26.60
17998;DHT22;9124;48.144;17.098;2023-03-02T10:41:24;31.40;27.00
17998;DHT22;9124;48.144;17.098;2023-03-02T10:45:18;32.10;26.90
17998;DHT22;9124;48.144;17.098;2023-03-02T10:48:58;32.60;26.50
17998;DHT22;9124;48.144;17.098;2023-03-02T10:52:36;31.40;26.20
17998;DHT22;9124;48.144;17.098;2023-03-02T10:56:20;31.20;26.00
17998;DHT22;9124;48.144;17.098;2023-03-02T11:00:25;30.80;25.80
17998;DHT22;9124;48.144;17.098;2023-03-02T11:04:02;30.30;25.50
17998;DHT22;9124;48.144;17.098;2023-03-02T11:07:38;30.10;25.60
17998;DHT22;9124;48.144;17.098;2023-03-02T11:11:22;29.70;25.40
17998;DHT22;9124;48.144;17.098;2023-03-02T11:15:20;29.20;25.40
17998;DHT22;9124;48.144;17.098;2023-03-02T11:19:04;29.10;25.30
17998;DHT22;9124;48.144;17.098;2023-03-02T11:22:58;27.60;24.60
17998;DHT22;9124;48.144;17.098;2023-03-02T11:26:37;25.60;24.90
17998;DHT22;9124;48.144;17.098;2023-03-02T11:30:19;24.50;25.10
17998;DHT22;9124;48.144;17.098;2023-03-02T11:41:46;19.70;25.70
17998;DHT22;9124;48.144;17.098;2023-03-02T11:45:28;17.10;26.50
17998;DHT22;9124;48.144;17.098;2023-03-02T11:49:16;15.40;27.30
17998;DHT22;9124;48.144;17.098;2023-03-02T11:53:00;14.10;28.30
17998;DHT22;9124;48.144;17.098;2023-03-02T11:56:39;13.10;29.10
17998;DHT22;9124;48.144;17.098;2023-03-02T12:00:40;12.40;30.00
17998;DHT22;9124;48.144;17.098;2023-03-02T12:04:32;12.00;30.40
17998;DHT22;9124;48.144;17.098;2023-03-02T12:15:55;11.80;31.20
17998;DHT22;9124;48.144;17.098;2023-03-02T12:19:40;11.70;31.10
17998;DHT22;9124;48.144;17.098;2023-03-02T12:23:23;11.80;31.50
17998;DHT22;9124;48.144;17.098;2023-03-02T12:30:41;11.70;31.80
17998;DHT22;9124;48.144;17.098;2023-03-02T12:38:27;11.80;32.30
17998;DHT22;9124;48.144;17.098;2023-03-02T12:42:30;11.70;32.40
17998;DHT22;9124;48.144;17.098;2023-03-02T12:46:24;11.70;32.40
17998;DHT22;9124;48.144;17.098;2023-03-02T12:50:05;11.70;32.50
17998;DHT22;9124;48.144;17.098;2023-03-02T12:53:43;11.70;33.20
17998;DHT22;9124;48.144;17.098;2023-03-02T12:57:19;11.60;33.20
17998;DHT22;9124;48.144;17.098;2023-03-02T13:00:58;11.60;33.40
17998;DHT22;9124;48.144;17.098;2023-03-02T13:04:35;11.60;33.70
17998;DHT22;9124;48.144;17.098;2023-03-02T13:08:21;11.60;33.60
17998;DHT22;9124;48.144;17.098;2023-03-02T13:12:00;11.60;33.90
17998;DHT22;9124;48.144;17.098;2023-03-02T13:15:47;11.50;35.10
17998;DHT22;9124;48.144;17.098;2023-03-02T13:19:24;11.40;35.20
17998;DHT22;9124;48.144;17.098;2023-03-02T13:23:02;11.40;35.20
17998;DHT22;9124;48.144;17.098;2023-03-02T13:26:38;11.40;35.50
17998;DHT22;9124;48.144;17.098;2023-03-02T13:30:23;11.40;36.30
17998;DHT22;9124;48.144;17.098;2023-03-02T13:34:00;11.40;36.00
17998;DHT22;9124;48.144;17.098;2023-03-02T13:37:38;11.40;36.10
17998;DHT22;9124;48.144;17.098;2023-03-02T13:41:30;11.50;36.00
17998;DHT22;9124;48.144;17.098;2023-03-02T13:45:28;11.50;36.00
17998;DHT22;9124;48.144;17.098;2023-03-02T13:49:06;11.50;36.20
17998;DHT22;9124;48.144;17.098;2023-03-02T13:52:44;11.50;36.00
17998;DHT22;9124;48.144;17.098;2023-03-02T13:56:28;11.40;36.90
17998;DHT22;9124;48.144;17.098;2023-03-02T14:00:13;11.40;36.60
17998;DHT22;9124;48.144;17.098;2023-03-02T14:03:51;11.40;36.80
17998;DHT22;9124;48.144;17.098;2023-03-02T14:07:28;11.30;36.90
17998;DHT22;9124;48.144;17.098;2023-03-02T14:11:04;11.40;36.80
17998;DHT22;9124;48.144;17.098;2023-03-02T14:14:42;11.40;36.80
17998;DHT22;9124;48.144;17.098;2023-03-02T14:18:43;11.40;37.00
17998;DHT22;9124;48.144;17.098;2023-03-02T14:22:21;11.30;37.40
17998;DHT22;9124;48.144;17.098;2023-03-02T14:25:58;11.30;37.40
17998;DHT22;9124;48.144;17.098;2023-03-02T14:29:34;11.30;37.80
17998;DHT22;9124;48.144;17.098;2023-03-02T14:33:15;11.20;37.50
17998;DHT22;9124;48.144;17.098;2023-03-02T14:36:55;11.20;37.50
17998;DHT22;9124;48.144;17.098;2023-03-02T14:40:32;11.20;37.60
17998;DHT22;9124;48.144;17.098;2023-03-02T14:44:13;11.20;37.60
17998;DHT22;9124;48.144;17.098;2023-03-02T14:47:49;11.20;37.70
17998;DHT22;9124;48.144;17.098;2023-03-02T14:51:29;11.20;37.60
17998;DHT22;9124;48.144;17.098;2023-03-02T14:55:25;11.20;37.60
17998;DHT22;9124;48.144;17.098;2023-03-02T14:59:02;11.20;37.70
17998;DHT22;9124;48.144;17.098;2023-03-02T15:02:38;11.40;38.00
17998;DHT22;9124;48.144;17.098;2023-03-02T15:06:25;11.50;37.90
17998;DHT22;9124;48.144;17.098;2023-03-02T15:10:02;12.10;38.30
17998;DHT22;9124;48.144;17.098;2023-03-02T15:13:39;12.10;37.80
17998;DHT22;9124;48.144;17.098;2023-03-02T15:17:15;11.80;37.50
17998;DHT22;9124;48.144;17.098;2023-03-02T15:20:51;11.50;37.50
17998;DHT22;9124;48.144;17.098;2023-03-02T15:24:28;11.30;37.60
17998;DHT22;9124;48.144;17.098;2023-03-02T15:28:04;11.10;37.80
17998;DHT22;9124;48.144;17.098;2023-03-02T15:31:41;11.00;38.20
17998;DHT22;9124;48.144;17.098;2023-03-02T15:35:17;10.80;38.20
17998;DHT22;9124;48.144;17.098;2023-03-02T15:38:54;10.70;38.20
17998;DHT22;9124;48.144;17.098;2023-03-02T15:42:30;10.50;38.30
17998;DHT22;9124;48.144;17.098;2023-03-02T15:46:07;10.30;38.40
17998;DHT22;9124;48.144;17.098;2023-03-02T15:49:47;10.20;38.60
17998;DHT22;9124;48.144;17.098;2023-03-02T15:53:24;10.00;38.70
17998;DHT22;9124;48.144;17.098;2023-03-02T15:57:00;9.80;38.80
17998;DHT22;9124;48.144;17.098;2023-03-02T16:00:36;9.70;39.10
17998;DHT22;9124;48.144;17.098;2023-03-02T16:04:13;9.50;39.10
17998;DHT22;9124;48.144;17.098;2023-03-02T16:07:49;9.50;39.50
17998;DHT22;9124;48.144;17.098;2023-03-02T16:11:26;9.40;39.60
17998;DHT22;9124;48.144;17.098;2023-03-02T16:15:02;9.30;39.60
17998;DHT22;9124;48.144;17.098;2023-03-02T16:18:38;9.30;40.10
17998;DHT22;9124;48.144;17.098;2023-03-02T16:22:15;9.20;40.00
17998;DHT22;9124;48.144;17.098;2023-03-02T16:25:51;9.00;40.10
17998;DHT22;9124;48.144;17.098;2023-03-02T16:29:27;8.80;40.20
17998;DHT22;9124;48.144;17.098;2023-03-02T16:33:06;8.60;40.30
17998;DHT22;9124;48.144;17.098;2023-03-02T16:36:43;8.50;40.50
17998;DHT22;9124;48.144;17.098;2023-03-02T16:40:20;8.30;40.70
17998;DHT22;9124;48.144;17.098;2023-03-02T16:43:57;8.10;40.80
17998;DHT22;9124;48.144;17.098;2023-03-02T16:47:34;7.90;41.10
17998;DHT22;9124;48.144;17.098;2023-03-02T16:51:11;7.70;41.10
17998;DHT22;9124;48.144;17.098;2023-03-02T16:54:47;7.60;41.40
17998;DHT22;9124;48.144;17.098;2023-03-02T16:58:24;7.50;41.50
17998;DHT22;9124;48.144;17.098;2023-03-02T17:02:00;7.40;41.70
17998;DHT22;9124;48.144;17.098;2023-03-02T17:05:37;7.30;41.90
17998;DHT22;9124;48.144;17.098;2023-03-02T17:09:17;7.20;42.00
17998;DHT22;9124;48.144;17.098;2023-03-02T17:12:53;7.10;42.20
17998;DHT22;9124;48.144;17.098;2023-03-02T17:16:30;6.90;42.30
17998;DHT22;9124;48.144;17.098;2023-03-02T17:20:08;6.80;42.50
17998;DHT22;9124;48.144;17.098;2023-03-02T17:23:47;6.80;42.70
17998;DHT22;9124;48.144;17.098;2023-03-02T17:27:23;6.80;42.80
17998;DHT22;9124;48.144;17.098;2023-03-02T17:31:02;6.80;42.90
17998;DHT22;9124;48.144;17.098;2023-03-02T17:34:38;6.90;43.00
17998;DHT22;9124;48.144;17.098;2023-03-02T17:38:15;6.80;43.00
17998;DHT22;9124;48.144;17.098;2023-03-02T17:41:51;6.70;43.10
17998;DHT22;9124;48.144;17.098;2023-03-02T17:45:28;6.60;43.20
17998;DHT22;9124;48.144;17.098;2023-03-02T17:49:04;6.50;43.40
17998;DHT22;9124;48.144;17.098;2023-03-02T17:52:41;6.50;43.60
17998;DHT22;9124;48.144;17.098;2023-03-02T17:56:20;6.50;43.70
17998;DHT22;9124;48.144;17.098;2023-03-02T17:59:57;6.40;43.80
17998;DHT22;9124;48.144;17.098;2023-03-02T18:03:34;6.50;43.90
17998;DHT22;9124;48.144;17.098;2023-03-02T18:07:11;6.40;44.00
17998;DHT22;9124;48.144;17.098;2023-03-02T18:10:49;6.30;44.10
17998;DHT22;9124;48.144;17.098;2023-03-02T18:14:25;6.20;44.20
17998;DHT22;9124;48.144;17.098;2023-03-02T18:18:04;6.20;44.30
17998;DHT22;9124;48.144;17.098;2023-03-02T18:21:40;6.10;44.40
17998;DHT22;9124;48.144;17.098;2023-03-02T18:25:17;6.00;44.40
17998;DHT22;9124;48.144;17.098;2023-03-02T18:28:54;6.00;44.60
17998;DHT22;9124;48.144;17.098;2023-03-02T18:32:30;5.90;44.70
17998;DHT22;9124;48.144;17.098;2023-03-02T18:36:07;5.90;44.80
17998;DHT22;9124;48.144;17.098;2023-03-02T18:39:43;6.00;44.90
17998;DHT22;9124;48.144;17.098;2023-03-02T18:43:20;6.10;45.00
17998;DHT22;9124;48.144;17.098;2023-03-02T18:46:57;6.20;45.10
17998;DHT22;9124;48.144;17.098;2023-03-02T18:50:33;6.20;45.10
17998;DHT22;9124;48.144;17.098;2023-03-02T18:54:10;6.10;45.00
17998;DHT22;9124;48.144;17.098;2023-03-02T18:57:46;5.90;45.10
17998;DHT22;9124;48.144;17.098;2023-03-02T19:01:23;5.80;45.20
17998;DHT22;9124;48.144;17.098;2023-03-02T19:04:59;5.80;45.30
17998;DHT22;9124;48.144;17.098;2023-03-02T19:08:36;5.80;45.30
17998;DHT22;9124;48.144;17.098;2023-03-02T19:12:13;5.80;45.20
17998;DHT22;9124;48.144;17.098;2023-03-02T19:15:51;5.80;45.30
17998;DHT22;9124;48.144;17.098;2023-03-02T19:19:28;5.80;45.30
17998;DHT22;9124;48.144;17.098;2023-03-02T19:23:05;5.90;45.50
17998;DHT22;9124;48.144;17.098;2023-03-02T19:26:41;5.90;45.50
17998;DHT22;9124;48.144;17.098;2023-03-02T19:30:24;6.00;45.60
17998;DHT22;9124;48.144;17.098;2023-03-02T19:34:00;6.00;45.80
17998;DHT22;9124;48.144;17.098;2023-03-02T19:37:37;6.10;45.90
17998;DHT22;9124;48.144;17.098;2023-03-02T19:41:17;6.10;45.90
17998;DHT22;9124;48.144;17.098;2023-03-02T19:44:53;6.10;46.00
17998;DHT22;9124;48.144;17.098;2023-03-02T19:48:30;6.10;46.10
17998;DHT22;9124;48.144;17.098;2023-03-02T19:52:06;6.10;46.20
17998;DHT22;9124;48.144;17.098;2023-03-02T19:55:44;6.20;46.40
17998;DHT22;9124;48.144;17.098;2023-03-02T19:59:22;6.20;46.50
17998;DHT22;9124;48.144;17.098;2023-03-02T20:02:58;6.10;46.50
17998;DHT22;9124;48.144;17.098;2023-03-02T20:06:35;6.20;46.60
17998;DHT22;9124;48.144;17.098;2023-03-02T20:10:31;6.20;46.70
17998;DHT22;9124;48.144;17.098;2023-03-02T20:14:08;6.20;46.80
17998;DHT22;9124;48.144;17.098;2023-03-02T20:17:45;6.10;46.70
17998;DHT22;9124;48.144;17.098;2023-03-02T20:21:21;6.20;46.90
17998;DHT22;9124;48.144;17.098;2023-03-02T20:25:01;6.20;46.90
17998;DHT22;9124;48.144;17.098;2023-03-02T20:28:37;6.20;46.90
17998;DHT22;9124;48.144;17.098;2023-03-02T20:32:14;6.20;47.00
17998;DHT22;9124;48.144;17.098;2023-03-02T20:35:52;6.20;47.10
17998;DHT22;9124;48.144;17.098;2023-03-02T20:39:32;6.20;47.10
17998;DHT22;9124;48.144;17.098;2023-03-02T20:43:08;6.20;47.20
17998;DHT22;9124;48.144;17.098;2023-03-02T20:46:48;6.20;47.20
17998;DHT22;9124;48.144;17.098;2023-03-02T20:50:30;6.20;47.30
17998;DHT22;9124;48.144;17.098;2023-03-02T20:54:07;6.20;47.40
17998;DHT22;9124;48.144;17.098;2023-03-02T20:57:44;6.20;47.50
17998;DHT22;9124;48.144;17.098;2023-03-02T21:01:20;6.20;47.60
17998;DHT22;9124;48.144;17.098;2023-03-02T21:04:58;6.20;47.60
17998;DHT22;9124;48.144;17.098;2023-03-02T21:08:36;6.30;47.70
17998;DHT22;9124;48.144;17.098;2023-03-02T21:12:13;6.20;47.80
17998;DHT22;9124;48.144;17.098;2023-03-02T21:15:50;6.10;47.80
17998;DHT22;9124;48.144;17.098;2023-03-02T21:19:26;6.10;48.00
17998;DHT22;9124;48.144;17.098;2023-03-02T21:23:07;6.10;48.10
17998;DHT22;9124;48.144;17.098;2023-03-02T21:26:47;6.10;48.10
17998;DHT22;9124;48.144;17.098;2023-03-02T21:30:27;6.10;48.20
17998;DHT22;9124;48.144;17.098;2023-03-02T21:34:04;6.00;48.30
17998;DHT22;9124;48.144;17.098;2023-03-02T21:37:41;6.00;48.40
17998;DHT22;9124;48.144;17.098;2023-03-02T21:41:18;6.00;48.40
17998;DHT22;9124;48.144;17.098;2023-03-02T21:44:55;6.00;48.50
17998;DHT22;9124;48.144;17.098;2023-03-02T21:48:31;6.00;48.60
17998;DHT22;9124;48.144;17.098;2023-03-02T21:52:07;5.90;48.70
17998;DHT22;9124;48.144;17.098;2023-03-02T21:55:44;5.90;48.70
17998;DHT22;9124;48.144;17.098;2023-03-02T21:59:21;5.90;48.80
17998;DHT22;9124;48.144;17.098;2023-03-02T22:02:57;5.80;48.80
17998;DHT22;9124;48.144;17.098;2023-03-02T22:06:34;5.80;48.80
17998;DHT22;9124;48.144;17.098;2023-03-02T22:10:28;5.80;48.90
17998;DHT22;9124;48.144;17.098;2023-03-02T22:14:13;5.80;49.00
17998;DHT22;9124;48.144;17.098;2023-03-02T22:17:50;5.80;49.10
17998;DHT22;9124;48.144;17.098;2023-03-02T22:21:36;5.80;49.10
17998;DHT22;9124;48.144;17.098;2023-03-02T22:25:16;5.70;49.30
17998;DHT22;9124;48.144;17.098;2023-03-02T22:28:57;5.80;49.30
17998;DHT22;9124;48.144;17.098;2023-03-02T22:32:38;5.80;49.40
17998;DHT22;9124;48.144;17.098;2023-03-02T22:36:21;5.80;49.40
17998;DHT22;9124;48.144;17.098;2023-03-02T22:40:29;5.80;49.60
17998;DHT22;9124;48.144;17.098;2023-03-02T22:44:10;5.70;49.60
17998;DHT22;9124;48.144;17.098;2023-03-02T22:47:48;5.80;49.80
17998;DHT22;9124;48.144;17.098;2023-03-02T22:51:28;5.80;49.70
17998;DHT22;9124;48.144;17.098;2023-03-02T22:55:40;5.70;49.80
17998;DHT22;9124;48.144;17.098;2023-03-02T22:59:26;5.60;50.00
17998;DHT22;9124;48.144;17.098;2023-03-02T23:07:20;5.20;50.30
17998;DHT22;9124;48.144;17.098;2023-03-02T23:10:58;5.00;50.30
17998;DHT22;9124;48.144;17.098;2023-03-02T23:14:40;4.80;50.40
17998;DHT22;9124;48.144;17.098;2023-03-02T23:18:22;4.70;50.70
17998;DHT22;9124;48.144;17.098;2023-03-02T23:21:59;4.60;50.80
17998;DHT22;9124;48.144;17.098;2023-03-02T23:25:35;4.50;50.90
17998;DHT22;9124;48.144;17.098;2023-03-02T23:29:11;4.30;51.10
17998;DHT22;9124;48.144;17.098;2023-03-02T23:32:48;4.20;51.20
17998;DHT22;9124;48.144;17.098;2023-03-02T23:36:24;4.20;51.40
17998;DHT22;9124;48.144;17.098;2023-03-02T23:40:03;4.10;51.60
17998;DHT22;9124;48.144;17.098;2023-03-02T23:43:40;4.00;51.70
17998;DHT22;9124;48.144;17.098;2023-03-02T23:47:17;3.90;51.80
17998;DHT22;9124;48.144;17.098;2023-03-02T23:50:53;3.80;52.00
17998;DHT22;9124;48.144;17.098;2023-03-02T23:54:29;3.70;52.10
17998;DHT22;9124;48.144;17.098;2023-03-02T23:58:06;3.60;52.20
